sensor_id;sensor_type;location;lat;lon;timestamp;temperature;humidity
23291;DHT22;11814;44.686;10.842;2023-02-03T00:00:20;6.80;79.80
23291;DHT22;11814;44.686;10.842;2023-02-03T00:02:46;6.80;79.80
23291;DHT22;11814;44.686;10.842;2023-02-03T00:05:11;6.70;79.90
23291;DHT22;11814;44.686;10.842;2023-02-03T00:07:38;6.70;80.10
23291;DHT22;11814;44.686;10.842;2023-02-03T00:10:05;6.70;80.10
23291;DHT22;11814;44.686;10.842;2023-02-03T00:12:31;6.70;80.30
23291;DHT22;11814;44.686;10.842;2023-02-03T00:15:00;6.70;80.50
23291;DHT22;11814;44.686;10.842;2023-02-03T00:17:26;6.60;80.40
23291;DHT22;11814;44.686;10.842;2023-02-03T00:19:51;6.60;80.60
23291;DHT22;11814;44.686;10.842;2023-02-03T00:22:17;6.50;80.60
23291;DHT22;11814;44.686;10.842;2023-02-03T00:24:49;6.50;80.60
23291;DHT22;11814;44.686;10.842;2023-02-03T00:27:15;6.40;80.70
23291;DHT22;11814;44.686;10.842;2023-02-03T00:29:41;6.40;80.80
23291;DHT22;11814;44.686;10.842;2023-02-03T00:32:07;6.30;80.80
23291;DHT22;11814;44.686;10.842;2023-02-03T00:34:32;6.30;81.10
23291;DHT22;11814;44.686;10.842;2023-02-03T00:36:58;6.30;81.10
23291;DHT22;11814;44.686;10.842;2023-02-03T00:39:24;6.20;81.20
23291;DHT22;11814;44.686;10.842;2023-02-03T00:41:49;6.20;81.00
23291;DHT22;11814;44.686;10.842;2023-02-03T00:44:15;6.10;81.20
23291;DHT22;11814;44.686;10.842;2023-02-03T00:46:41;6.10;81.30
23291;DHT22;11814;44.686;10.842;2023-02-03T00:49:07;6.10;81.60
23291;DHT22;11814;44.686;10.842;2023-02-03T00:51:33;6.10;81.90
23291;DHT22;11814;44.686;10.842;2023-02-03T00:53:59;6.10;81.90
23291;DHT22;11814;44.686;10.842;2023-02-03T00:56:25;6.00;81.90
23291;DHT22;11814;44.686;10.842;2023-02-03T00:58:50;6.00;82.20
23291;DHT22;11814;44.686;10.842;2023-02-03T01:01:16;6.00;82.50
23291;DHT22;11814;44.686;10.842;2023-02-03T01:03:42;6.00;82.60
23291;DHT22;11814;44.686;10.842;2023-02-03T01:08:38;5.90;83.00
23291;DHT22;11814;44.686;10.842;2023-02-03T01:11:10;5.90;83.00
23291;DHT22;11814;44.686;10.842;2023-02-03T01:13:36;5.90;83.30
23291;DHT22;11814;44.686;10.842;2023-02-03T01:16:02;5.90;83.50
23291;DHT22;11814;44.686;10.842;2023-02-03T01:18:28;5.90;83.60
23291;DHT22;11814;44.686;10.842;2023-02-03T01:20:53;5.90;83.90
23291;DHT22;11814;44.686;10.842;2023-02-03T01:23:19;5.90;84.10
23291;DHT22;11814;44.686;10.842;2023-02-03T01:25:45;5.80;84.30
23291;DHT22;11814;44.686;10.842;2023-02-03T01:28:10;5.90;84.70
23291;DHT22;11814;44.686;10.842;2023-02-03T01:30:36;5.90;84.60
23291;DHT22;11814;44.686;10.842;2023-02-03T01:33:02;5.80;84.30
23291;DHT22;11814;44.686;10.842;2023-02-03T01:35:28;5.70;84.30
23291;DHT22;11814;44.686;10.842;2023-02-03T01:37:53;5.60;84.30
23291;DHT22;11814;44.686;10.842;2023-02-03T01:40:19;5.30;84.40
23291;DHT22;11814;44.686;10.842;2023-02-03T01:42:45;5.20;85.30
23291;DHT22;11814;44.686;10.842;2023-02-03T01:45:10;5.30;85.90
23291;DHT22;11814;44.686;10.842;2023-02-03T01:52:34;5.60;86.10
23291;DHT22;11814;44.686;10.842;2023-02-03T01:55:03;5.70;85.80
23291;DHT22;11814;44.686;10.842;2023-02-03T01:57:34;5.80;85.60
23291;DHT22;11814;44.686;10.842;2023-02-03T02:00:03;5.90;85.30
23291;DHT22;11814;44.686;10.842;2023-02-03T02:02:29;5.90;85.10
23291;DHT22;11814;44.686;10.842;2023-02-03T02:07:33;6.00;85.10
23291;DHT22;11814;44.686;10.842;2023-02-03T02:10:00;6.00;84.90
23291;DHT22;11814;44.686;10.842;2023-02-03T02:12:26;5.90;84.80
23291;DHT22;11814;44.686;10.842;2023-02-03T02:14:52;5.90;84.80
23291;DHT22;11814;44.686;10.842;2023-02-03T02:22:59;5.90;85.10
23291;DHT22;11814;44.686;10.842;2023-02-03T02:36:31;5.90;84.40
23291;DHT22;11814;44.686;10.842;2023-02-03T02:39:09;5.90;84.30
23291;DHT22;11814;44.686;10.842;2023-02-03T02:41:45;5.80;84.10
23291;DHT22;11814;44.686;10.842;2023-02-03T02:44:27;5.70;84.20
23291;DHT22;11814;44.686;10.842;2023-02-03T02:47:01;5.70;84.50
23291;DHT22;11814;44.686;10.842;2023-02-03T02:49:31;5.70;84.50
23291;DHT22;11814;44.686;10.842;2023-02-03T02:52:03;5.70;84.60
23291;DHT22;11814;44.686;10.842;2023-02-03T02:54:32;5.70;84.70
23291;DHT22;11814;44.686;10.842;2023-02-03T02:57:02;5.70;84.80
23291;DHT22;11814;44.686;10.842;2023-02-03T02:59:30;5.70;85.60
23291;DHT22;11814;44.686;10.842;2023-02-03T03:01:55;5.70;85.00
23291;DHT22;11814;44.686;10.842;2023-02-03T03:04:24;5.80;85.10
23291;DHT22;11814;44.686;10.842;2023-02-03T03:07:00;5.80;85.10
23291;DHT22;11814;44.686;10.842;2023-02-03T03:09:35;5.80;85.10
23291;DHT22;11814;44.686;10.842;2023-02-03T03:14:33;5.90;85.10
23291;DHT22;11814;44.686;10.842;2023-02-03T03:17:05;6.00;85.00
23291;DHT22;11814;44.686;10.842;2023-02-03T03:19:38;6.10;85.10
23291;DHT22;11814;44.686;10.842;2023-02-03T03:22:06;6.10;84.90
23291;DHT22;11814;44.686;10.842;2023-02-03T03:24:46;6.20;84.80
23291;DHT22;11814;44.686;10.842;2023-02-03T03:27:24;6.30;84.80
23291;DHT22;11814;44.686;10.842;2023-02-03T03:30:05;6.30;84.60
23291;DHT22;11814;44.686;10.842;2023-02-03T03:32:33;6.30;84.50
23291;DHT22;11814;44.686;10.842;2023-02-03T03:35:01;6.30;84.50
23291;DHT22;11814;44.686;10.842;2023-02-03T03:37:48;6.30;84.50
23291;DHT22;11814;44.686;10.842;2023-02-03T03:42:58;6.30;84.50
23291;DHT22;11814;44.686;10.842;2023-02-03T03:45:35;6.20;84.30
23291;DHT22;11814;44.686;10.842;2023-02-03T03:48:04;6.20;84.20
23291;DHT22;11814;44.686;10.842;2023-02-03T03:50:41;6.10;84.10
23291;DHT22;11814;44.686;10.842;2023-02-03T03:53:08;6.00;84.00
23291;DHT22;11814;44.686;10.842;2023-02-03T03:55:35;5.90;84.20
23291;DHT22;11814;44.686;10.842;2023-02-03T03:58:06;5.80;84.40
23291;DHT22;11814;44.686;10.842;2023-02-03T04:00:35;5.70;84.70
23291;DHT22;11814;44.686;10.842;2023-02-03T04:03:38;5.70;85.10
23291;DHT22;11814;44.686;10.842;2023-02-03T04:05:57;5.60;85.20
23291;DHT22;11814;44.686;10.842;2023-02-03T04:08:22;5.50;86.00
23291;DHT22;11814;44.686;10.842;2023-02-03T04:10:48;5.50;85.60
23291;DHT22;11814;44.686;10.842;2023-02-03T04:13:14;5.40;85.90
23291;DHT22;11814;44.686;10.842;2023-02-03T04:15:41;5.50;86.20
23291;DHT22;11814;44.686;10.842;2023-02-03T04:18:09;5.50;86.00
23291;DHT22;11814;44.686;10.842;2023-02-03T04:20:36;5.30;85.60
23291;DHT22;11814;44.686;10.842;2023-02-03T04:23:02;5.20;86.00
23291;DHT22;11814;44.686;10.842;2023-02-03T04:25:27;5.10;86.30
23291;DHT22;11814;44.686;10.842;2023-02-03T04:27:54;5.10;86.90
23291;DHT22;11814;44.686;10.842;2023-02-03T04:30:19;5.20;87.40
23291;DHT22;11814;44.686;10.842;2023-02-03T04:32:46;5.20;87.50
23291;DHT22;11814;44.686;10.842;2023-02-03T04:35:12;5.20;87.70
23291;DHT22;11814;44.686;10.842;2023-02-03T04:37:38;5.20;87.80
23291;DHT22;11814;44.686;10.842;2023-02-03T04:40:05;5.20;87.70
23291;DHT22;11814;44.686;10.842;2023-02-03T04:42:31;5.20;87.70
23291;DHT22;11814;44.686;10.842;2023-02-03T04:44:56;5.10;88.20
23291;DHT22;11814;44.686;10.842;2023-02-03T04:47:22;5.10;88.60
23291;DHT22;11814;44.686;10.842;2023-02-03T04:49:48;5.20;88.80
23291;DHT22;11814;44.686;10.842;2023-02-03T04:52:14;5.10;88.90
23291;DHT22;11814;44.686;10.842;2023-02-03T04:54:40;5.10;89.00
23291;DHT22;11814;44.686;10.842;2023-02-03T04:57:06;5.10;89.00
23291;DHT22;11814;44.686;10.842;2023-02-03T04:59:32;5.10;89.10
23291;DHT22;11814;44.686;10.842;2023-02-03T05:01:58;5.10;89.20
23291;DHT22;11814;44.686;10.842;2023-02-03T05:04:25;5.00;89.80
23291;DHT22;11814;44.686;10.842;2023-02-03T05:06:51;5.00;89.20
23291;DHT22;11814;44.686;10.842;2023-02-03T05:09:17;4.90;89.30
23291;DHT22;11814;44.686;10.842;2023-02-03T05:11:43;4.80;89.60
23291;DHT22;11814;44.686;10.842;2023-02-03T05:14:08;4.80;89.90
23291;DHT22;11814;44.686;10.842;2023-02-03T05:16:34;4.80;90.00
23291;DHT22;11814;44.686;10.842;2023-02-03T05:19:00;4.80;90.00
23291;DHT22;11814;44.686;10.842;2023-02-03T05:21:25;4.70;90.00
23291;DHT22;11814;44.686;10.842;2023-02-03T05:23:51;4.70;90.10
23291;DHT22;11814;44.686;10.842;2023-02-03T05:26:17;4.70;90.20
23291;DHT22;11814;44.686;10.842;2023-02-03T05:28:43;4.70;90.10
23291;DHT22;11814;44.686;10.842;2023-02-03T05:31:09;4.70;90.10
23291;DHT22;11814;44.686;10.842;2023-02-03T05:33:34;4.60;90.10
23291;DHT22;11814;44.686;10.842;2023-02-03T05:36:00;4.70;90.10
23291;DHT22;11814;44.686;10.842;2023-02-03T05:38:26;4.50;89.80
23291;DHT22;11814;44.686;10.842;2023-02-03T05:40:52;4.40;89.40
23291;DHT22;11814;44.686;10.842;2023-02-03T05:43:36;4.20;89.60
23291;DHT22;11814;44.686;10.842;2023-02-03T05:46:03;4.10;90.00
23291;DHT22;11814;44.686;10.842;2023-02-03T05:48:30;4.10;90.10
23291;DHT22;11814;44.686;10.842;2023-02-03T05:50:56;4.10;90.30
23291;DHT22;11814;44.686;10.842;2023-02-03T05:53:21;4.10;90.40
23291;DHT22;11814;44.686;10.842;2023-02-03T05:55:47;4.20;90.60
23291;DHT22;11814;44.686;10.842;2023-02-03T05:58:13;4.20;90.60
23291;DHT22;11814;44.686;10.842;2023-02-03T06:00:39;4.20;90.60
23291;DHT22;11814;44.686;10.842;2023-02-03T06:03:05;4.10;90.80
23291;DHT22;11814;44.686;10.842;2023-02-03T06:05:32;4.10;91.00
23291;DHT22;11814;44.686;10.842;2023-02-03T06:07:59;4.00;91.10
23291;DHT22;11814;44.686;10.842;2023-02-03T06:10:25;4.00;91.30
23291;DHT22;11814;44.686;10.842;2023-02-03T06:12:57;4.00;91.50
23291;DHT22;11814;44.686;10.842;2023-02-03T06:15:22;4.10;91.50
23291;DHT22;11814;44.686;10.842;2023-02-03T06:17:48;4.10;91.70
23291;DHT22;11814;44.686;10.842;2023-02-03T06:20:17;4.20;91.70
23291;DHT22;11814;44.686;10.842;2023-02-03T06:22:43;4.30;91.70
23291;DHT22;11814;44.686;10.842;2023-02-03T06:25:10;4.40;91.70
23291;DHT22;11814;44.686;10.842;2023-02-03T06:27:36;4.40;91.70
23291;DHT22;11814;44.686;10.842;2023-02-03T06:30:02;4.50;91.60
23291;DHT22;11814;44.686;10.842;2023-02-03T06:32:28;4.40;91.40
23291;DHT22;11814;44.686;10.842;2023-02-03T06:34:54;4.40;91.40
23291;DHT22;11814;44.686;10.842;2023-02-03T06:37:19;4.30;91.50
23291;DHT22;11814;44.686;10.842;2023-02-03T06:39:45;4.20;91.40
23291;DHT22;11814;44.686;10.842;2023-02-03T06:42:11;4.00;91.40
23291;DHT22;11814;44.686;10.842;2023-02-03T06:44:37;4.00;91.70
23291;DHT22;11814;44.686;10.842;2023-02-03T06:47:02;3.90;91.70
23291;DHT22;11814;44.686;10.842;2023-02-03T06:49:29;3.70;91.70
23291;DHT22;11814;44.686;10.842;2023-02-03T06:51:55;3.60;92.10
23291;DHT22;11814;44.686;10.842;2023-02-03T06:54:21;3.60;92.40
23291;DHT22;11814;44.686;10.842;2023-02-03T06:56:47;3.60;92.40
23291;DHT22;11814;44.686;10.842;2023-02-03T06:59:13;3.60;92.40
23291;DHT22;11814;44.686;10.842;2023-02-03T07:01:38;3.40;92.40
23291;DHT22;11814;44.686;10.842;2023-02-03T07:04:04;3.30;92.50
23291;DHT22;11814;44.686;10.842;2023-02-03T07:06:31;3.30;92.70
23291;DHT22;11814;44.686;10.842;2023-02-03T07:09:03;3.20;92.70
23291;DHT22;11814;44.686;10.842;2023-02-03T07:11:29;3.20;93.30
23291;DHT22;11814;44.686;10.842;2023-02-03T07:13:55;3.20;93.00
23291;DHT22;11814;44.686;10.842;2023-02-03T07:16:22;3.10;93.10
23291;DHT22;11814;44.686;10.842;2023-02-03T07:18:48;3.10;93.30
23291;DHT22;11814;44.686;10.842;2023-02-03T07:21:15;3.10;93.40
23291;DHT22;11814;44.686;10.842;2023-02-03T07:23:40;3.10;93.20
23291;DHT22;11814;44.686;10.842;2023-02-03T07:26:07;3.10;93.50
23291;DHT22;11814;44.686;10.842;2023-02-03T07:28:33;3.10;93.70
23291;DHT22;11814;44.686;10.842;2023-02-03T07:31:00;3.10;93.90
23291;DHT22;11814;44.686;10.842;2023-02-03T07:33:26;3.20;94.00
23291;DHT22;11814;44.686;10.842;2023-02-03T07:35:56;3.30;94.10
23291;DHT22;11814;44.686;10.842;2023-02-03T07:38:24;3.30;93.70
23291;DHT22;11814;44.686;10.842;2023-02-03T07:40:50;3.20;93.90
23291;DHT22;11814;44.686;10.842;2023-02-03T07:43:16;3.20;93.90
23291;DHT22;11814;44.686;10.842;2023-02-03T07:45:42;3.30;94.40
23291;DHT22;11814;44.686;10.842;2023-02-03T07:48:07;3.30;94.50
23291;DHT22;11814;44.686;10.842;2023-02-03T07:50:33;3.40;94.50
23291;DHT22;11814;44.686;10.842;2023-02-03T07:53:00;3.40;94.40
23291;DHT22;11814;44.686;10.842;2023-02-03T07:55:26;3.40;94.60
23291;DHT22;11814;44.686;10.842;2023-02-03T07:57:53;3.50;94.80
23291;DHT22;11814;44.686;10.842;2023-02-03T08:00:19;3.50;94.80
23291;DHT22;11814;44.686;10.842;2023-02-03T08:02:45;3.50;94.80
23291;DHT22;11814;44.686;10.842;2023-02-03T08:05:12;3.50;95.10
23291;DHT22;11814;44.686;10.842;2023-02-03T08:07:38;3.60;95.00
23291;DHT22;11814;44.686;10.842;2023-02-03T08:10:04;3.70;95.30
23291;DHT22;11814;44.686;10.842;2023-02-03T08:12:30;3.70;95.30
23291;DHT22;11814;44.686;10.842;2023-02-03T08:14:56;3.80;95.70
23291;DHT22;11814;44.686;10.842;2023-02-03T08:17:22;3.90;95.50
23291;DHT22;11814;44.686;10.842;2023-02-03T08:19:47;4.00;95.80
23291;DHT22;11814;44.686;10.842;2023-02-03T08:22:13;4.10;95.90
23291;DHT22;11814;44.686;10.842;2023-02-03T08:24:45;4.30;95.80
23291;DHT22;11814;44.686;10.842;2023-02-03T08:27:16;4.30;95.70
23291;DHT22;11814;44.686;10.842;2023-02-03T08:29:43;4.30;95.80
23291;DHT22;11814;44.686;10.842;2023-02-03T08:32:14;4.10;96.20
23291;DHT22;11814;44.686;10.842;2023-02-03T08:34:41;3.80;96.90
23291;DHT22;11814;44.686;10.842;2023-02-03T08:37:06;3.60;98.50
23291;DHT22;11814;44.686;10.842;2023-02-03T08:39:33;3.60;99.90
23291;DHT22;11814;44.686;10.842;2023-02-03T08:42:00;3.60;99.90
23291;DHT22;11814;44.686;10.842;2023-02-03T08:44:26;3.80;99.90
23291;DHT22;11814;44.686;10.842;2023-02-03T08:46:52;3.90;99.90
23291;DHT22;11814;44.686;10.842;2023-02-03T08:49:19;4.00;99.90
23291;DHT22;11814;44.686;10.842;2023-02-03T08:51:46;4.10;99.90
23291;DHT22;11814;44.686;10.842;2023-02-03T08:54:12;4.20;99.90
23291;DHT22;11814;44.686;10.842;2023-02-03T08:56:38;4.30;99.90
23291;DHT22;11814;44.686;10.842;2023-02-03T08:59:04;4.30;99.90
23291;DHT22;11814;44.686;10.842;2023-02-03T09:01:30;4.40;99.90
23291;DHT22;11814;44.686;10.842;2023-02-03T09:03:55;4.50;99.90
23291;DHT22;11814;44.686;10.842;2023-02-03T09:06:21;4.70;99.90
23291;DHT22;11814;44.686;10.842;2023-02-03T09:08:47;4.70;99.90
23291;DHT22;11814;44.686;10.842;2023-02-03T09:11:15;4.80;99.90
23291;DHT22;11814;44.686;10.842;2023-02-03T09:13:42;4.90;99.90
23291;DHT22;11814;44.686;10.842;2023-02-03T09:16:14;4.90;99.90
23291;DHT22;11814;44.686;10.842;2023-02-03T09:18:44;5.10;99.90
23291;DHT22;11814;44.686;10.842;2023-02-03T09:21:11;5.10;99.90
23291;DHT22;11814;44.686;10.842;2023-02-03T09:23:38;5.20;99.90
23291;DHT22;11814;44.686;10.842;2023-02-03T09:26:06;5.30;99.90
23291;DHT22;11814;44.686;10.842;2023-02-03T09:28:33;5.30;99.90
23291;DHT22;11814;44.686;10.842;2023-02-03T09:31:03;5.30;99.90
23291;DHT22;11814;44.686;10.842;2023-02-03T09:33:30;5.30;99.90
23291;DHT22;11814;44.686;10.842;2023-02-03T09:35:57;5.40;99.90
23291;DHT22;11814;44.686;10.842;2023-02-03T09:38:23;5.40;99.90
23291;DHT22;11814;44.686;10.842;2023-02-03T09:41:11;5.30;99.90
23291;DHT22;11814;44.686;10.842;2023-02-03T09:47:10;5.30;99.90
23291;DHT22;11814;44.686;10.842;2023-02-03T09:49:41;5.50;99.90
23291;DHT22;11814;44.686;10.842;2023-02-03T09:52:20;5.60;99.90
23291;DHT22;11814;44.686;10.842;2023-02-03T09:58:08;5.90;99.90
23291;DHT22;11814;44.686;10.842;2023-02-03T10:00:53;6.00;99.90
23291;DHT22;11814;44.686;10.842;2023-02-03T10:03:36;6.10;99.90
23291;DHT22;11814;44.686;10.842;2023-02-03T10:06:18;6.10;99.90
23291;DHT22;11814;44.686;10.842;2023-02-03T10:11:48;6.20;99.90
23291;DHT22;11814;44.686;10.842;2023-02-03T10:22:28;6.50;99.90
23291;DHT22;11814;44.686;10.842;2023-02-03T10:27:40;6.80;99.90
23291;DHT22;11814;44.686;10.842;2023-02-03T10:30:18;6.70;99.90
23291;DHT22;11814;44.686;10.842;2023-02-03T10:32:44;6.70;99.90
23291;DHT22;11814;44.686;10.842;2023-02-03T10:35:11;6.80;99.90
23291;DHT22;11814;44.686;10.842;2023-02-03T10:37:44;6.80;99.90
23291;DHT22;11814;44.686;10.842;2023-02-03T10:40:13;6.70;99.90
23291;DHT22;11814;44.686;10.842;2023-02-03T10:42:39;6.70;99.90
23291;DHT22;11814;44.686;10.842;2023-02-03T10:45:24;6.70;99.90
23291;DHT22;11814;44.686;10.842;2023-02-03T10:47:53;6.70;99.90
23291;DHT22;11814;44.686;10.842;2023-02-03T10:50:22;6.80;99.90
23291;DHT22;11814;44.686;10.842;2023-02-03T10:52:49;6.80;99.90
23291;DHT22;11814;44.686;10.842;2023-02-03T10:57:49;6.90;99.90
23291;DHT22;11814;44.686;10.842;2023-02-03T11:05:26;6.90;99.90
23291;DHT22;11814;44.686;10.842;2023-02-03T11:07:52;6.90;99.90
23291;DHT22;11814;44.686;10.842;2023-02-03T11:18:37;7.20;99.90
23291;DHT22;11814;44.686;10.842;2023-02-03T11:26:46;7.50;99.90
23291;DHT22;11814;44.686;10.842;2023-02-03T11:29:42;7.70;99.90
23291;DHT22;11814;44.686;10.842;2023-02-03T11:32:16;7.90;99.90
23291;DHT22;11814;44.686;10.842;2023-02-03T11:34:54;8.10;99.90
23291;DHT22;11814;44.686;10.842;2023-02-03T11:37:41;8.30;99.90
23291;DHT22;11814;44.686;10.842;2023-02-03T11:42:39;8.80;99.90
23291;DHT22;11814;44.686;10.842;2023-02-03T11:47:54;9.30;99.90
23291;DHT22;11814;44.686;10.842;2023-02-03T12:07:08;10.10;99.90
23291;DHT22;11814;44.686;10.842;2023-02-03T12:17:58;10.90;99.90
23291;DHT22;11814;44.686;10.842;2023-02-03T12:26:14;11.50;99.90
23291;DHT22;11814;44.686;10.842;2023-02-03T12:29:05;11.40;99.90
23291;DHT22;11814;44.686;10.842;2023-02-03T12:34:27;11.80;99.90
23291;DHT22;11814;44.686;10.842;2023-02-03T12:37:00;11.90;99.90
23291;DHT22;11814;44.686;10.842;2023-02-03T12:42:17;12.00;99.90
23291;DHT22;11814;44.686;10.842;2023-02-03T12:44:49;11.90;99.90
23291;DHT22;11814;44.686;10.842;2023-02-03T12:52:59;12.00;99.90
23291;DHT22;11814;44.686;10.842;2023-02-03T12:57:58;12.20;99.90
23291;DHT22;11814;44.686;10.842;2023-02-03T13:03:48;12.30;99.90
23291;DHT22;11814;44.686;10.842;2023-02-03T13:11:56;12.30;99.40
23291;DHT22;11814;44.686;10.842;2023-02-03T13:14:48;12.30;98.70
23291;DHT22;11814;44.686;10.842;2023-02-03T13:17:56;12.30;98.90
23291;DHT22;11814;44.686;10.842;2023-02-03T13:20:26;12.40;98.80
23291;DHT22;11814;44.686;10.842;2023-02-03T13:22:56;12.50;98.60
23291;DHT22;11814;44.686;10.842;2023-02-03T13:28:18;12.60;98.20
23291;DHT22;11814;44.686;10.842;2023-02-03T13:42:32;12.90;95.70
23291;DHT22;11814;44.686;10.842;2023-02-03T13:47:50;12.80;94.60
23291;DHT22;11814;44.686;10.842;2023-02-03T13:50:28;12.80;94.70
23291;DHT22;11814;44.686;10.842;2023-02-03T13:53:03;12.80;94.20
23291;DHT22;11814;44.686;10.842;2023-02-03T13:57:57;12.90;93.80
23291;DHT22;11814;44.686;10.842;2023-02-03T14:00:58;12.90;93.70
23291;DHT22;11814;44.686;10.842;2023-02-03T14:16:52;12.70;93.10
23291;DHT22;11814;44.686;10.842;2023-02-03T14:24:22;12.50;93.20
23291;DHT22;11814;44.686;10.842;2023-02-03T14:26:53;12.50;93.30
23291;DHT22;11814;44.686;10.842;2023-02-03T14:29:33;12.40;93.30
23291;DHT22;11814;44.686;10.842;2023-02-03T14:32:05;12.30;93.40
23291;DHT22;11814;44.686;10.842;2023-02-03T14:34:46;12.30;93.40
23291;DHT22;11814;44.686;10.842;2023-02-03T14:53:35;12.10;94.40
23291;DHT22;11814;44.686;10.842;2023-02-03T14:59:03;12.00;94.40
23291;DHT22;11814;44.686;10.842;2023-02-03T15:04:21;12.00;94.50
23291;DHT22;11814;44.686;10.842;2023-02-03T15:06:50;12.00;94.70
23291;DHT22;11814;44.686;10.842;2023-02-03T15:09:40;12.00;94.80
23291;DHT22;11814;44.686;10.842;2023-02-03T15:12:23;11.90;94.90
23291;DHT22;11814;44.686;10.842;2023-02-03T15:14:50;11.80;95.00
23291;DHT22;11814;44.686;10.842;2023-02-03T15:17:23;11.70;95.30
23291;DHT22;11814;44.686;10.842;2023-02-03T15:19:50;11.70;95.60
23291;DHT22;11814;44.686;10.842;2023-02-03T15:22:25;11.70;95.80
23291;DHT22;11814;44.686;10.842;2023-02-03T15:25:02;11.70;95.90
23291;DHT22;11814;44.686;10.842;2023-02-03T15:27:31;11.70;96.10
23291;DHT22;11814;44.686;10.842;2023-02-03T15:29:57;11.70;96.20
23291;DHT22;11814;44.686;10.842;2023-02-03T15:32:28;11.60;96.20
23291;DHT22;11814;44.686;10.842;2023-02-03T15:34:56;11.60;96.20
23291;DHT22;11814;44.686;10.842;2023-02-03T15:40:22;11.60;96.20
23291;DHT22;11814;44.686;10.842;2023-02-03T15:45:46;11.60;96.10
23291;DHT22;11814;44.686;10.842;2023-02-03T15:54:05;11.50;96.20
23291;DHT22;11814;44.686;10.842;2023-02-03T15:56:39;11.40;96.40
23291;DHT22;11814;44.686;10.842;2023-02-03T16:01:47;11.20;96.60
23291;DHT22;11814;44.686;10.842;2023-02-03T16:04:13;11.30;96.70
23291;DHT22;11814;44.686;10.842;2023-02-03T16:06:39;11.20;96.80
23291;DHT22;11814;44.686;10.842;2023-02-03T16:12:22;11.00;97.40
23291;DHT22;11814;44.686;10.842;2023-02-03T16:14:49;11.00;97.70
23291;DHT22;11814;44.686;10.842;2023-02-03T16:17:30;10.90;97.90
23291;DHT22;11814;44.686;10.842;2023-02-03T16:22:38;10.80;98.40
23291;DHT22;11814;44.686;10.842;2023-02-03T16:25:19;10.80;98.70
23291;DHT22;11814;44.686;10.842;2023-02-03T16:30:38;10.70;99.40
23291;DHT22;11814;44.686;10.842;2023-02-03T16:33:22;10.60;99.70
23291;DHT22;11814;44.686;10.842;2023-02-03T16:36:13;10.60;99.90
23291;DHT22;11814;44.686;10.842;2023-02-03T16:39:00;10.60;99.90
23291;DHT22;11814;44.686;10.842;2023-02-03T16:41:45;10.50;99.90
23291;DHT22;11814;44.686;10.842;2023-02-03T16:44:29;10.50;99.90
23291;DHT22;11814;44.686;10.842;2023-02-03T16:47:25;10.40;99.90
23291;DHT22;11814;44.686;10.842;2023-02-03T16:50:21;10.20;99.90
23291;DHT22;11814;44.686;10.842;2023-02-03T16:53:12;10.10;99.90
23291;DHT22;11814;44.686;10.842;2023-02-03T16:55:39;10.00;99.90
23291;DHT22;11814;44.686;10.842;2023-02-03T16:58:04;9.80;99.90
23291;DHT22;11814;44.686;10.842;2023-02-03T17:00:30;9.90;99.90
23291;DHT22;11814;44.686;10.842;2023-02-03T17:02:56;9.80;99.90
23291;DHT22;11814;44.686;10.842;2023-02-03T17:05:22;9.80;99.90
23291;DHT22;11814;44.686;10.842;2023-02-03T17:07:47;9.80;99.90
23291;DHT22;11814;44.686;10.842;2023-02-03T17:10:15;9.70;99.90
23291;DHT22;11814;44.686;10.842;2023-02-03T17:12:41;9.70;99.90
23291;DHT22;11814;44.686;10.842;2023-02-03T17:15:07;9.60;99.90
23291;DHT22;11814;44.686;10.842;2023-02-03T17:17:33;9.50;99.90
23291;DHT22;11814;44.686;10.842;2023-02-03T17:19:59;9.40;99.90
23291;DHT22;11814;44.686;10.842;2023-02-03T17:22:25;9.30;99.90
23291;DHT22;11814;44.686;10.842;2023-02-03T17:24:51;9.20;99.90
23291;DHT22;11814;44.686;10.842;2023-02-03T17:27:17;9.10;99.90
23291;DHT22;11814;44.686;10.842;2023-02-03T17:29:43;8.90;99.90
23291;DHT22;11814;44.686;10.842;2023-02-03T17:32:09;8.90;99.90
23291;DHT22;11814;44.686;10.842;2023-02-03T17:34:40;8.80;99.90
23291;DHT22;11814;44.686;10.842;2023-02-03T17:37:05;8.80;99.90
23291;DHT22;11814;44.686;10.842;2023-02-03T17:39:31;8.70;99.90
23291;DHT22;11814;44.686;10.842;2023-02-03T17:41:57;8.60;99.90
23291;DHT22;11814;44.686;10.842;2023-02-03T17:44:23;8.60;99.90
23291;DHT22;11814;44.686;10.842;2023-02-03T17:46:48;8.50;99.90
23291;DHT22;11814;44.686;10.842;2023-02-03T17:49:14;8.50;99.90
23291;DHT22;11814;44.686;10.842;2023-02-03T17:51:40;8.40;99.90
23291;DHT22;11814;44.686;10.842;2023-02-03T17:54:05;8.30;99.90
23291;DHT22;11814;44.686;10.842;2023-02-03T17:56:33;8.20;99.90
23291;DHT22;11814;44.686;10.842;2023-02-03T17:59:01;8.20;99.90
23291;DHT22;11814;44.686;10.842;2023-02-03T18:01:28;8.20;99.90
23291;DHT22;11814;44.686;10.842;2023-02-03T18:03:59;8.20;99.90
23291;DHT22;11814;44.686;10.842;2023-02-03T18:06:26;8.20;99.90
23291;DHT22;11814;44.686;10.842;2023-02-03T18:08:52;8.10;99.90
23291;DHT22;11814;44.686;10.842;2023-02-03T18:11:19;8.10;99.90
23291;DHT22;11814;44.686;10.842;2023-02-03T18:13:47;8.10;99.90
23291;DHT22;11814;44.686;10.842;2023-02-03T18:16:21;8.10;99.90
23291;DHT22;11814;44.686;10.842;2023-02-03T18:18:50;8.10;99.90
23291;DHT22;11814;44.686;10.842;2023-02-03T18:21:18;8.00;99.90
23291;DHT22;11814;44.686;10.842;2023-02-03T18:23:44;7.80;99.90
23291;DHT22;11814;44.686;10.842;2023-02-03T18:26:11;7.80;99.90
23291;DHT22;11814;44.686;10.842;2023-02-03T18:28:38;7.70;99.90
23291;DHT22;11814;44.686;10.842;2023-02-03T18:31:12;7.60;99.90
23291;DHT22;11814;44.686;10.842;2023-02-03T18:33:40;7.60;99.90
23291;DHT22;11814;44.686;10.842;2023-02-03T18:36:07;7.60;99.90
23291;DHT22;11814;44.686;10.842;2023-02-03T18:38:34;7.60;99.90
23291;DHT22;11814;44.686;10.842;2023-02-03T18:41:20;7.60;99.90
23291;DHT22;11814;44.686;10.842;2023-02-03T18:43:47;7.70;99.90
23291;DHT22;11814;44.686;10.842;2023-02-03T18:46:19;7.70;99.90
23291;DHT22;11814;44.686;10.842;2023-02-03T18:48:45;7.60;99.90
23291;DHT22;11814;44.686;10.842;2023-02-03T18:51:14;7.60;99.90
23291;DHT22;11814;44.686;10.842;2023-02-03T18:53:41;7.50;99.90
23291;DHT22;11814;44.686;10.842;2023-02-03T18:56:14;7.40;99.90
23291;DHT22;11814;44.686;10.842;2023-02-03T18:58:40;7.40;99.90
23291;DHT22;11814;44.686;10.842;2023-02-03T19:01:06;7.30;99.90
23291;DHT22;11814;44.686;10.842;2023-02-03T19:03:33;7.20;99.90
23291;DHT22;11814;44.686;10.842;2023-02-03T19:05:59;7.20;99.90
23291;DHT22;11814;44.686;10.842;2023-02-03T19:08:25;7.10;99.90
23291;DHT22;11814;44.686;10.842;2023-02-03T19:10:53;7.00;99.90
23291;DHT22;11814;44.686;10.842;2023-02-03T19:13:20;7.00;99.90
23291;DHT22;11814;44.686;10.842;2023-02-03T19:15:47;7.00;99.90